x

Devils Island, Wi (disw3) Weather Station

2:00pm - Tue 16th Sep 2014 All times are CDT. -5 hours from GMT.

  • Wind
    29mph, 31mph gusts
  • Air Temp 59°f
  • Sea Pressure 1015.4mb
  • Devils Island, Wi
  • Devils Island, Wi

More Historic Weather Station data

Upgrade to MSW Pro to gain access to the past 30 days of data for over 8000 Wavebouys and Weather Stations around the globe.

Join Pro

Comparision Forecast

View Surf forecast
   
Tue 09/16 2:00pm 29 31 mph 1015.4mb 59f
1:00pm 22 26 mph 1015.9mb 57f
12:00pm 24 26 mph 1016.2mb 55f
11:00am 24 29 mph 1016.7mb 53f
10:00am 25 30 mph 1017.2mb 52f
9:00am 26 30 mph 1017.5mb 51f
8:00am 25 29 mph 1018mb 51f
7:00am 25 30 mph 1018.4mb 51f
6:00am 26 30 mph 1018.3mb 51f
5:00am 21 24 mph 1018.7mb 51f
4:00am 20 22 mph 1019.3mb 51f
3:00am 15 18 mph 1019.7mb 50f
2:00am 17 21 mph 1019.9mb 51f
1:00am 15 18 mph 1020mb 50f
12:00am 15 17 mph 1020.3mb 51f
Mon 09/15 11:00pm 14 15 mph 1020.7mb 51f
10:00pm 11 14 mph 1020.6mb 51f
9:00pm 11 13 mph 1020.6mb 52f
8:00pm 11 13 mph 1020.6mb 53f
7:00pm 13 15 mph 1020.5mb 53f
6:00pm 13 16 mph 1020.7mb 54f
5:00pm 16 20 mph 1020.6mb 53f
4:00pm 10 11 mph 1020.7mb 53f
3:00pm 10 13 mph 1021.1mb 53f
2:00pm 11 13 mph 1021.4mb 52f
1:00pm 15 17 mph 1021.4mb 52f
12:00pm 14 18 mph 1021.3mb 51f
11:00am 15 18 mph 1021.5mb 50f
10:00am 15 16 mph 1021.6mb 51f
9:00am 7 9 mph 1021.3mb 51f
8:00am 10 11 mph 1021.1mb 50f
7:00am 13 15 mph 1020.7mb 50f
6:00am 10 11 mph 1019.9mb 51f
5:00am 10 14 mph 1019.5mb 51f
4:00am 13 15 mph 1019.2mb 51f
3:00am 14 15 mph 1019.3mb 51f
2:00am 11 15 mph 1019.4mb 52f
1:00am 14 16 mph 1019.2mb 52f
12:00am 10 11 mph 1018.9mb 52f
Sun 09/14 11:00pm 13 15 mph 1018.9mb 52f
10:00pm 13 14 mph 1018.7mb 53f
9:00pm 15 16 mph 1018.5mb 54f
8:00pm 14 16 mph 1018mb 54f
7:00pm 13 14 mph 1017.8mb 53f
6:00pm 17 20 mph 1017.1mb 54f
5:00pm 13 15 mph 1017mb 54f
4:00pm 18 22 mph 1016.7mb 54f
3:00pm 18 22 mph 1016.7mb 54f
2:00pm 16 20 mph 1016.5mb 54f
1:00pm 23 26 mph 1016.2mb 54f
12:00pm 24 28 mph 1016.1mb 52f
11:00am 22 26 mph 1016.1mb 52f
10:00am 23 28 mph 1016.1mb 53f
9:00am 21 25 mph 1016.3mb 52f
8:00am 16 20 mph 1016.5mb 50f
7:00am 20 24 mph 1016.7mb 51f
6:00am 16 22 mph 1017mb 50f
5:00am 17 23 mph 1017.7mb 52f
4:00am 14 17 mph 1018mb 51f
3:00am 16 23 mph 1018.4mb 51f
2:00am 15 23 mph 1019.7mb 52f
1:00am 15 22 mph 1020.3mb 53f
12:00am 10 15 mph 1021.1mb 53f
Sat 09/13 11:00pm 10 17 mph 1021.6mb 53f
10:00pm 9 13 mph 1022.4mb 54f
9:00pm 7 10 mph 1022.6mb 54f
8:00pm 7 10 mph 1023mb 54f
7:00pm 6 8 mph 1022.8mb 54f
6:00pm 7 8 mph 1023.1mb 54f
5:00pm 8 9 mph 1023mb 55f
4:00pm 10 14 mph 1023.6mb 54f
3:00pm 9 13 mph 1024mb 53f
2:00pm 10 14 mph 1024.8mb 53f
1:00pm 14 16 mph 1025.4mb 53f
12:00pm 13 16 mph 1025.9mb 51f
11:00am 13 16 mph 1026.6mb 50f
10:00am 14 17 mph 1026.6mb 49f
9:00am 16 20 mph 1026.6mb 48f
8:00am 15 21 mph 1026.3mb 49f
7:00am 16 18 mph 1026.1mb 49f
6:00am 14 17 mph 1026mb 49f
5:00am 3 7 mph 1025.9mb 51f
4:00am 11 14 mph 1025.9mb 50f
3:00am 15 16 mph 1025.9mb 51f
2:00am 10 13 mph 1026.1mb 51f
1:00am 9 14 mph 1026.3mb 50f
12:00am 11 14 mph 1026.3mb 50f
Fri 09/12 11:00pm 10 13 mph 1026.5mb 50f
10:00pm 9 11 mph 1026.8mb 49f
9:00pm 6
mph
1027.1mb 49f